Terminal Aerodrome Forecast
Issued by NWS

Home | Current Version | Previous Version | Text Only | Print | Product List | Glossary On
Versions: 1 2 3 4 5 6 7 8 9 10 11 12 13 14 15 16 17 18 19 20 21 22 23 24 25 26 27 28 29 30 31 32 33 34
000
FTUS45 KBOU 252019 AAB
TAFBJC
TAF AMD
KBJC 252019Z 2520/2618 30014G22KT P6SM -TSRA BKN050CB OVC070
      TEMPO 2520/2522 5SM SHRA OVC045
     FM252200 01012G18KT 6SM -SHRA SCT045 OVC060
      TEMPO 2601/2604 3SM -RASN BKN015 OVC030
     FM260400 03013KT P6SM SCT030 BKN050 BKN100
     FM261100 VRB06KT P6SM VCFG FEW001 SCT200
     FM261600 09009KT P6SM SCT070=

USA.gov is the U.S. government's official web portal to all federal, state and local government web resources and services.